Time;durP1;ratioP1;P1;durP2;ratioP2;P2;SDS_P1;SDS_P2;PMS_P1;PMS_P2;Temp;Humidity;BMP_temperature;BMP_pressure;BME280_temperature;BME280_humidity;BME280_pressure;Samples;Min_cycle;Max_cycle;Signal;HPM_P1;HPM_P2
2022/06/22 00:02:07;;;;;;;10.65;9.02;;;;;;;;;;5076672;28;20104;-74
2022/06/22 00:04:42;;;;;;;9.95;8.95;;;;;;;;;;5074668;28;20099;-73
2022/06/22 00:07:12;;;;;;;11.95;9.70;;;;;;;;;;5086446;28;20043;-74
2022/06/22 00:09:39;;;;;;;11.30;9.88;;;;;;;;;;5094705;28;20055;-73
2022/06/22 00:12:05;;;;;;;16.58;12.00;;;;;;;;;;5092464;28;20459;-74
2022/06/22 00:14:34;;;;;;;13.82;10.73;;;;;;;;;;5094709;28;20048;-73
2022/06/22 00:17:00;;;;;;;13.23;10.48;;;;;;;;;;5094343;28;20094;-73
2022/06/22 00:19:29;;;;;;;11.43;9.98;;;;;;;;;;5094391;28;20468;-73
2022/06/22 00:21:55;;;;;;;15.52;11.63;;;;;;;;;;5075357;28;20052;-74
2022/06/22 00:24:24;;;;;;;11.07;9.25;;;;;;;;;;5094783;28;20040;-74
2022/06/22 00:26:55;;;;;;;11.35;9.52;;;;;;;;;;5093765;28;20043;-74
2022/06/22 00:29:24;;;;;;;12.55;9.35;;;;;;;;;;5093616;28;20101;-73
2022/06/22 00:31:50;;;;;;;13.23;9.75;;;;;;;;;;5094384;28;20047;-74
2022/06/22 00:34:18;;;;;;;12.40;9.75;;;;;;;;;;5076289;28;20048;-74
2022/06/22 00:36:59;;;;;;;11.50;9.63;;;;;;;;;;5093734;28;20040;-74
2022/06/22 00:39:26;;;;;;;14.27;11.18;;;;;;;;;;5094730;28;20062;-73
2022/06/22 00:41:58;;;;;;;12.68;10.20;;;;;;;;;;5093275;28;20074;-74
2022/06/22 00:47:04;;;;;;;6.68;5.47;;;;;;;;;;5038609;28;20022;-77
2022/06/22 00:49:31;;;;;;;9.88;7.93;;;;;;;;;;5039820;28;20018;-77
2022/06/22 00:52:01;;;;;;;10.82;8.32;;;;;;;;;;5039445;28;20030;-77
2022/06/22 00:54:29;;;;;;;11.38;8.18;;;;;;;;;;5039579;28;20030;-77
2022/06/22 00:57:00;;;;;;;12.25;9.85;;;;;;;;;;5039405;28;20097;-77
2022/06/22 00:59:49;;;;;;;10.18;8.52;;;;;;;;;;5039882;28;20022;-77
2022/06/22 01:02:28;;;;;;;8.50;6.55;;;;;;;;;;5039933;28;20056;-77
2022/06/22 01:04:57;;;;;;;6.15;5.15;;;;;;;;;;5039830;28;20026;-77
2022/06/22 01:07:31;;;;;;;6.00;5.22;;;;;;;;;;5039815;28;20018;-77
2022/06/22 01:09:57;;;;;;;4.95;4.15;;;;;;;;;;5039011;28;20045;-77
2022/06/22 01:12:31;;;;;;;4.47;3.92;;;;;;;;;;5039725;28;20034;-76
2022/06/22 01:15:03;;;;;;;8.75;4.35;;;;;;;;;;5039810;28;20026;-77
2022/06/22 01:17:44;;;;;;;7.70;6.38;;;;;;;;;;5039788;28;20022;-76
2022/06/22 01:20:27;;;;;;;8.02;6.32;;;;;;;;;;5039082;28;20021;-77
2022/06/22 01:23:06;;;;;;;11.73;8.52;;;;;;;;;;5039769;28;20033;-76
2022/06/22 01:25:51;;;;;;;11.73;9.70;;;;;;;;;;5038860;28;20006;-77
2022/06/22 01:28:18;;;;;;;11.90;9.93;;;;;;;;;;5039312;28;20014;-77
2022/06/22 01:30:48;;;;;;;11.38;9.23;;;;;;;;;;5039436;28;20032;-77
2022/06/22 01:33:24;;;;;;;11.32;8.82;;;;;;;;;;5040519;28;20053;-77
2022/06/22 01:35:55;;;;;;;10.43;8.40;;;;;;;;;;5043602;28;20049;-77
2022/06/22 01:38:23;;;;;;;11.32;9.25;;;;;;;;;;5043509;28;20014;-76
2022/06/22 01:40:52;;;;;;;9.80;8.23;;;;;;;;;;5043099;28;20018;-77
2022/06/22 01:43:27;;;;;;;8.90;7.90;;;;;;;;;;5042839;28;20030;-77
2022/06/22 01:46:07;;;;;;;11.80;7.95;;;;;;;;;;5028703;28;20046;-77
2022/06/22 01:48:33;;;;;;;10.80;8.35;;;;;;;;;;5023182;28;20031;-76
2022/06/22 01:51:06;;;;;;;11.82;8.50;;;;;;;;;;5023420;28;20045;-76
2022/06/22 01:53:32;;;;;;;9.90;8.70;;;;;;;;;;5023304;28;20022;-77
2022/06/22 01:56:02;;;;;;;12.20;10.40;;;;;;;;;;5023434;28;20069;-77
2022/06/22 01:58:34;;;;;;;11.10;9.10;;;;;;;;;;5023166;28;20038;-77
2022/06/22 02:01:02;;;;;;;13.15;9.30;;;;;;;;;;5003822;28;20038;-77
2022/06/22 02:03:37;;;;;;;10.45;8.38;;;;;;;;;;5014341;28;20023;-78
2022/06/22 02:09:22;;;;;;;13.73;9.63;;;;;;;;;;5001761;28;20019;-78
2022/06/22 02:12:18;;;;;;;13.77;10.45;;;;;;;;;;5003576;28;20022;-76
2022/06/22 02:14:37;;;;;;;17.38;11.80;;;;;;;;;;5013900;28;20034;-77
2022/06/22 02:17:04;;;;;;;15.60;11.10;;;;;;;;;;5022893;28;20050;-77
2022/06/22 02:19:30;;;;;;;14.63;11.15;;;;;;;;;;5022438;28;20022;-77
2022/06/22 02:21:58;;;;;;;13.02;10.00;;;;;;;;;;5022911;28;20018;-77
2022/06/22 02:24:33;;;;;;;10.95;7.25;;;;;;;;;;5006211;28;20037;-77
2022/06/22 02:26:59;;;;;;;8.33;6.77;;;;;;;;;;5022908;28;20011;-76
2022/06/22 02:29:26;;;;;;;8.73;6.80;;;;;;;;;;5022176;28;20007;-78
2022/06/22 02:31:53;;;;;;;9.00;7.53;;;;;;;;;;5022728;28;20026;-78
2022/06/22 02:34:20;;;;;;;10.82;7.95;;;;;;;;;;5003228;28;20074;-78
2022/06/22 02:36:47;;;;;;;11.60;8.77;;;;;;;;;;5002733;28;20087;-78
2022/06/22 02:39:14;;;;;;;11.65;8.10;;;;;;;;;;5022453;28;20027;-78
2022/06/22 02:44:31;;;;;;;13.23;10.40;;;;;;;;;;5021128;28;20026;-77
2022/06/22 02:46:59;;;;;;;9.23;7.15;;;;;;;;;;5021672;28;20026;-77
2022/06/22 02:49:33;;;;;;;8.48;6.03;;;;;;;;;;5022463;28;20078;-78
2022/06/22 02:52:00;;;;;;;9.60;5.65;;;;;;;;;;5005166;28;20105;-77
2022/06/22 02:54:32;;;;;;;5.47;4.60;;;;;;;;;;5022381;28;20015;-76
2022/06/22 02:57:13;;;;;;;5.05;3.80;;;;;;;;;;5022029;28;20041;-77
2022/06/22 02:59:39;;;;;;;4.05;3.55;;;;;;;;;;5004981;28;20069;-77
2022/06/22 03:02:06;;;;;;;5.72;3.67;;;;;;;;;;5021717;28;20041;-77
2022/06/22 03:04:33;;;;;;;7.65;5.80;;;;;;;;;;5022164;28;20030;-76
2022/06/22 03:06:59;;;;;;;7.82;6.97;;;;;;;;;;5022192;28;20142;-77
2022/06/22 03:09:27;;;;;;;11.63;7.30;;;;;;;;;;5022117;28;20015;-76
2022/06/22 03:11:55;;;;;;;7.22;3.97;;;;;;;;;;5021948;28;20026;-76
2022/06/22 03:14:30;;;;;;;4.93;3.50;;;;;;;;;;5021436;28;20034;-77
2022/06/22 03:17:05;;;;;;;5.15;3.80;;;;;;;;;;5021146;28;20022;-77
2022/06/22 03:19:47;;;;;;;5.47;4.00;;;;;;;;;;5005203;28;20014;-77
2022/06/22 03:22:16;;;;;;;6.22;4.63;;;;;;;;;;5021841;28;20022;-77
2022/06/22 03:24:47;;;;;;;4.85;4.10;;;;;;;;;;5021861;28;20025;-76
2022/06/22 03:27:20;;;;;;;5.25;3.92;;;;;;;;;;5019342;28;20109;-77
2022/06/22 03:29:49;;;;;;;5.72;4.53;;;;;;;;;;5002165;28;20019;-76
2022/06/22 03:32:28;;;;;;;6.18;5.13;;;;;;;;;;5012801;28;20107;-77
2022/06/22 03:35:03;;;;;;;9.35;6.38;;;;;;;;;;5021617;28;20061;-77
2022/06/22 03:37:32;;;;;;;7.97;5.80;;;;;;;;;;5021435;28;20010;-76
2022/06/22 03:40:01;;;;;;;8.63;6.63;;;;;;;;;;5021494;28;20076;-76
2022/06/22 03:42:39;;;;;;;12.25;8.85;;;;;;;;;;5020968;28;20010;-76
2022/06/22 03:45:09;;;;;;;8.68;6.82;;;;;;;;;;5020970;28;20027;-76
2022/06/22 03:47:38;;;;;;;8.75;7.10;;;;;;;;;;5020662;28;20034;-77
2022/06/22 03:50:15;;;;;;;8.90;6.95;;;;;;;;;;5021312;28;20034;-76
2022/06/22 03:52:44;;;;;;;8.93;7.15;;;;;;;;;;5021133;28;20056;-77
2022/06/22 03:55:18;;;;;;;9.95;7.78;;;;;;;;;;5020268;28;20011;-76
2022/06/22 03:57:49;;;;;;;9.57;7.75;;;;;;;;;;5020393;28;20042;-77
2022/06/22 04:00:16;;;;;;;11.13;8.02;;;;;;;;;;5021226;28;20030;-76
2022/06/22 04:02:43;;;;;;;11.68;8.65;;;;;;;;;;5020018;28;20018;-77
2022/06/22 04:05:15;;;;;;;14.00;9.75;;;;;;;;;;5021030;28;20022;-76
2022/06/22 04:07:41;;;;;;;10.73;7.40;;;;;;;;;;5020714;28;20029;-77
2022/06/22 04:10:13;;;;;;;8.63;7.25;;;;;;;;;;5020352;28;20038;-77
2022/06/22 04:12:42;;;;;;;10.07;7.53;;;;;;;;;;5009668;28;20081;-77
2022/06/22 04:15:13;;;;;;;8.73;6.68;;;;;;;;;;5020723;28;20022;-77
2022/06/22 04:17:49;;;;;;;4.88;4.30;;;;;;;;;;5020303;28;20019;-76
2022/06/22 04:20:20;;;;;;;5.38;4.20;;;;;;;;;;5020657;28;20010;-76
2022/06/22 04:22:49;;;;;;;10.30;7.47;;;;;;;;;;5003436;28;20033;-77
2022/06/22 04:25:26;;;;;;;9.85;7.28;;;;;;;;;;5020667;28;20010;-76
2022/06/22 04:27:53;;;;;;;10.48;7.03;;;;;;;;;;5020006;28;20017;-77
2022/06/22 04:30:21;;;;;;;8.38;6.03;;;;;;;;;;5020666;28;20030;-76
2022/06/22 04:33:05;;;;;;;8.60;6.60;;;;;;;;;;5020480;28;20026;-76
2022/06/22 04:35:31;;;;;;;8.40;6.53;;;;;;;;;;5019900;28;20026;-77
2022/06/22 04:38:10;;;;;;;9.20;6.70;;;;;;;;;;5019990;28;20023;-77
2022/06/22 04:40:58;;;;;;;9.30;7.05;;;;;;;;;;5019729;28;20050;-77
2022/06/22 04:43:25;;;;;;;8.50;7.60;;;;;;;;;;5020327;28;20027;-77
2022/06/22 04:45:52;;;;;;;12.45;9.32;;;;;;;;;;5019802;28;20034;-77
2022/06/22 04:48:23;;;;;;;15.27;9.25;;;;;;;;;;5019879;28;20126;-77
2022/06/22 04:50:51;;;;;;;12.40;9.23;;;;;;;;;;5020257;28;20018;-77
2022/06/22 04:53:27;;;;;;;11.82;9.63;;;;;;;;;;5019326;28;20046;-77
2022/06/22 04:55:53;;;;;;;;;;;;;;;;;;5014958;28;20049;-77
2022/06/22 04:58:22;;;;;;;12.02;8.43;;;;;;;;;;5000633;28;19906;-77
2022/06/22 05:00:49;;;;;;;11.15;8.73;;;;;;;;;;5000620;28;20027;-77
2022/06/22 05:03:15;;;;;;;12.85;9.48;;;;;;;;;;5000646;28;20026;-77
2022/06/22 05:05:41;;;;;;;12.55;9.68;;;;;;;;;;5015942;28;20025;-77
2022/06/22 05:08:25;;;;;;;11.63;9.50;;;;;;;;;;5019670;28;20049;-77
2022/06/22 05:11:03;;;;;;;12.68;10.43;;;;;;;;;;5018841;28;20007;-81
2022/06/22 05:13:38;;;;;;;12.82;9.75;;;;;;;;;;5017024;28;20023;-77
2022/06/22 05:16:07;;;;;;;12.77;9.30;;;;;;;;;;5018012;28;20034;-78
2022/06/22 05:18:34;;;;;;;14.32;10.75;;;;;;;;;;5018011;28;20042;-77
2022/06/22 05:21:09;;;;;;;12.77;10.60;;;;;;;;;;5017396;28;20045;-77
2022/06/22 05:23:35;;;;;;;12.47;11.17;;;;;;;;;;5018081;28;20030;-77
2022/06/22 05:26:04;;;;;;;13.48;11.15;;;;;;;;;;5008134;28;20046;-77
2022/06/22 05:28:39;;;;;;;12.68;10.88;;;;;;;;;;4999045;28;20031;-77
2022/06/22 05:31:10;;;;;;;13.30;10.38;;;;;;;;;;4998868;28;20102;-77
2022/06/22 05:33:38;;;;;;;12.82;10.65;;;;;;;;;;5004731;28;20042;-77
2022/06/22 05:36:12;;;;;;;16.02;11.57;;;;;;;;;;5018493;28;21025;-77
2022/06/22 05:38:40;;;;;;;13.25;10.20;;;;;;;;;;5017720;28;20141;-77
2022/06/22 05:41:07;;;;;;;14.18;10.60;;;;;;;;;;5017008;28;20090;-77
2022/06/22 05:43:35;;;;;;;15.77;10.00;;;;;;;;;;5018212;28;20034;-77
2022/06/22 05:46:06;;;;;;;12.88;10.25;;;;;;;;;;5018034;28;20069;-77
2022/06/22 05:48:34;;;;;;;14.85;10.52;;;;;;;;;;5017733;28;20041;-78
2022/06/22 05:51:02;;;;;;;15.38;10.48;;;;;;;;;;5017876;28;20045;-78
2022/06/22 05:53:31;;;;;;;17.05;10.85;;;;;;;;;;5017712;28;20026;-78
2022/06/22 05:56:05;;;;;;;15.05;10.15;;;;;;;;;;5017796;28;20030;-77
2022/06/22 05:58:39;;;;;;;13.35;9.48;;;;;;;;;;5017582;28;20037;-77
2022/06/22 06:01:12;;;;;;;11.10;8.32;;;;;;;;;;4996509;28;20027;-78
2022/06/22 06:03:38;;;;;;;14.43;8.98;;;;;;;;;;4994272;28;20053;-79
2022/06/22 06:06:10;;;;;;;13.25;9.52;;;;;;;;;;5002546;28;20062;-78
2022/06/22 06:08:43;;;;;;;13.90;9.35;;;;;;;;;;4995896;28;20042;-78
2022/06/22 06:11:15;;;;;;;11.75;9.07;;;;;;;;;;5016768;28;20033;-78
2022/06/22 06:13:43;;;;;;;12.13;8.80;;;;;;;;;;5017414;28;20082;-78
2022/06/22 06:16:23;;;;;;;15.40;9.30;;;;;;;;;;5018013;28;20057;-78
2022/06/22 06:18:49;;;;;;;12.65;9.93;;;;;;;;;;5018372;28;20034;-78
2022/06/22 06:21:18;;;;;;;12.98;8.95;;;;;;;;;;5007790;28;20095;-78
2022/06/22 06:23:56;;;;;;;13.00;9.40;;;;;;;;;;5002128;28;20046;-78
2022/06/22 06:29:30;;;;;;;16.02;10.60;;;;;;;;;;5001790;28;20027;-78
2022/06/22 06:32:02;;;;;;;11.88;9.43;;;;;;;;;;5001803;28;20041;-78
2022/06/22 06:34:34;;;;;;;15.93;10.25;;;;;;;;;;5021171;28;20061;-78
2022/06/22 06:37:26;;;;;;;14.23;10.05;;;;;;;;;;5021285;28;20038;-78
2022/06/22 06:39:53;;;;;;;12.90;10.30;;;;;;;;;;5017844;28;20081;-78
2022/06/22 06:42:23;;;;;;;13.75;10.38;;;;;;;;;;5020477;28;20026;-78
2022/06/22 06:44:51;;;;;;;14.02;10.48;;;;;;;;;;5020676;28;20030;-77
2022/06/22 06:47:26;;;;;;;13.98;11.38;;;;;;;;;;5021224;28;20065;-78
2022/06/22 06:50:12;;;;;;;13.40;10.87;;;;;;;;;;5016816;28;20030;-78
2022/06/22 06:52:38;;;;;;;;;;;;;;;;;;5021219;28;20544;-78
2022/06/22 06:55:14;;;;;;;11.57;9.95;;;;;;;;;;5021006;28;19918;-77
2022/06/22 06:57:44;;;;;;;13.10;9.88;;;;;;;;;;5019997;28;20026;-78
2022/06/22 07:00:11;;;;;;;13.68;11.23;;;;;;;;;;5019417;28;20053;-78
2022/06/22 07:02:39;;;;;;;14.43;10.70;;;;;;;;;;5020003;28;20094;-82
2022/06/22 07:05:07;;;;;;;11.80;10.48;;;;;;;;;;5020395;28;20038;-78
2022/06/22 07:07:33;;;;;;;13.48;10.40;;;;;;;;;;5020708;28;20041;-78
2022/06/22 07:10:02;;;;;;;13.15;10.82;;;;;;;;;;5019628;28;20034;-78
2022/06/22 07:12:47;;;;;;;14.07;11.18;;;;;;;;;;5018781;28;20034;-81
2022/06/22 07:15:19;;;;;;;16.20;10.73;;;;;;;;;;5019255;28;20026;-76
2022/06/22 07:17:47;;;;;;;15.18;10.50;;;;;;;;;;5019955;28;20033;-75
2022/06/22 07:20:19;;;;;;;14.43;10.90;;;;;;;;;;5019524;28;20033;-78
2022/06/22 07:22:52;;;;;;;14.60;10.63;;;;;;;;;;5017600;28;20038;-79
2022/06/22 07:25:19;;;;;;;14.68;10.63;;;;;;;;;;5017951;28;20045;-79
2022/06/22 07:27:49;;;;;;;14.38;11.25;;;;;;;;;;5020409;28;20038;-78
2022/06/22 07:30:34;;;;;;;16.25;11.68;;;;;;;;;;5020223;28;20042;-78
2022/06/22 07:33:24;;;;;;;12.35;9.85;;;;;;;;;;5020080;28;20032;-78
2022/06/22 07:35:57;;;;;;;14.02;10.93;;;;;;;;;;5019831;28;20046;-78
2022/06/22 07:38:41;;;;;;;14.88;11.48;;;;;;;;;;5019559;28;20023;-78
2022/06/22 07:41:19;;;;;;;14.18;11.35;;;;;;;;;;5000208;28;20066;-78
2022/06/22 07:43:54;;;;;;;14.35;11.40;;;;;;;;;;5000195;28;20047;-79
2022/06/22 07:46:23;;;;;;;12.48;10.98;;;;;;;;;;5000297;28;20035;-78
2022/06/22 07:48:50;;;;;;;14.55;10.25;;;;;;;;;;5005340;28;20153;-78
2022/06/22 07:51:22;;;;;;;10.15;8.15;;;;;;;;;;5017866;28;20070;-79
2022/06/22 07:53:51;;;;;;;10.23;8.15;;;;;;;;;;5016731;28;20042;-82
2022/06/22 07:56:18;;;;;;;10.32;6.72;;;;;;;;;;5019069;28;20086;-79
2022/06/22 07:58:48;;;;;;;10.48;7.05;;;;;;;;;;4991906;28;20107;-79
2022/06/22 08:01:16;;;;;;;9.13;6.70;;;;;;;;;;4998916;28;20058;-79
2022/06/22 08:03:44;;;;;;;10.90;6.25;;;;;;;;;;5001322;28;20287;-84
2022/06/22 08:06:20;;;;;;;9.40;7.05;;;;;;;;;;5013915;28;20513;-79
2022/06/22 08:08:52;;;;;;;11.43;6.53;;;;;;;;;;5018472;28;20033;-78
2022/06/22 08:11:24;;;;;;;9.07;6.47;;;;;;;;;;5015895;28;20133;-81
2022/06/22 08:14:00;;;;;;;9.48;6.75;;;;;;;;;;5018239;28;20077;-78
2022/06/22 08:16:34;;;;;;;9.52;6.72;;;;;;;;;;5018911;28;20061;-78
2022/06/22 08:19:01;;;;;;;9.75;6.22;;;;;;;;;;5012342;28;20055;-78
2022/06/22 08:21:28;;;;;;;8.85;6.25;;;;;;;;;;4999979;28;20054;-77
2022/06/22 08:23:55;;;;;;;13.45;7.63;;;;;;;;;;4999747;28;20026;-77
2022/06/22 08:26:26;;;;;;;11.88;8.07;;;;;;;;;;4999761;28;20127;-77
2022/06/22 08:28:53;;;;;;;11.57;7.43;;;;;;;;;;5008852;28;20030;-78
2022/06/22 08:31:19;;;;;;;11.07;7.57;;;;;;;;;;5019169;28;20033;-78
2022/06/22 08:33:49;;;;;;;10.93;7.00;;;;;;;;;;5018480;28;20045;-78
2022/06/22 08:36:18;;;;;;;9.73;6.47;;;;;;;;;;5019112;28;20105;-79
2022/06/22 08:38:58;;;;;;;10.48;6.40;;;;;;;;;;5018378;28;20041;-79
2022/06/22 08:41:34;;;;;;;9.75;6.13;;;;;;;;;;5018778;28;20091;-78
2022/06/22 08:44:07;;;;;;;10.05;6.18;;;;;;;;;;5019128;28;20074;-78
2022/06/22 08:46:51;;;;;;;8.88;6.10;;;;;;;;;;5018119;28;20043;-78
2022/06/22 08:49:18;;;;;;;7.63;5.55;;;;;;;;;;5017900;28;20050;-78
2022/06/22 08:51:47;;;;;;;8.70;5.20;;;;;;;;;;5018785;28;20085;-78
2022/06/22 08:54:23;;;;;;;11.13;7.22;;;;;;;;;;5018965;28;20034;-78
2022/06/22 08:57:07;;;;;;;11.15;7.00;;;;;;;;;;5018982;28;20061;-79
2022/06/22 08:59:36;;;;;;;13.75;9.43;;;;;;;;;;5018182;28;20039;-78
2022/06/22 09:02:11;;;;;;;12.70;8.20;;;;;;;;;;5018664;28;20106;-78
2022/06/22 09:05:13;;;;;;;15.15;9.00;;;;;;;;;;5018174;28;20057;-79
2022/06/22 09:07:58;;;;;;;10.98;7.50;;;;;;;;;;4978833;28;20039;-79
2022/06/22 09:10:43;;;;;;;9.68;7.28;;;;;;;;;;4946605;28;20047;-78
2022/06/22 09:13:47;;;;;;;14.52;7.88;;;;;;;;;;4978756;28;20041;-78
2022/06/22 09:16:32;;;;;;;14.38;7.07;;;;;;;;;;4940494;29;20043;-78
2022/06/22 09:19:00;;;;;;;11.82;6.90;;;;;;;;;;4939541;29;20028;-78
2022/06/22 09:21:38;;;;;;;8.75;6.10;;;;;;;;;;4940013;28;20063;-78
2022/06/22 09:24:13;;;;;;;9.95;6.45;;;;;;;;;;4940468;28;20034;-78
2022/06/22 09:26:54;;;;;;;10.73;6.90;;;;;;;;;;4940267;28;20040;-78
2022/06/22 09:29:29;;;;;;;12.75;7.57;;;;;;;;;;4939543;28;20048;-79
2022/06/22 09:32:15;;;;;;;10.73;7.70;;;;;;;;;;4939928;29;20044;-78
2022/06/22 09:35:00;;;;;;;17.73;7.63;;;;;;;;;;4940385;29;20037;-78
2022/06/22 09:37:45;;;;;;;9.40;6.00;;;;;;;;;;4940329;29;20048;-78
2022/06/22 09:40:13;;;;;;;9.80;6.65;;;;;;;;;;4939800;29;20044;-78
2022/06/22 09:42:39;;;;;;;10.90;6.40;;;;;;;;;;4976919;28;20032;-79
2022/06/22 09:45:07;;;;;;;10.20;6.70;;;;;;;;;;4977145;28;20028;-79
2022/06/22 09:47:36;;;;;;;9.98;6.97;;;;;;;;;;5009117;28;20034;-79
2022/06/22 09:50:22;;;;;;;13.20;7.10;;;;;;;;;;5017844;28;20037;-79
2022/06/22 09:53:01;;;;;;;12.45;8.05;;;;;;;;;;4994929;28;20049;-79
2022/06/22 09:58:48;;;;;;;12.43;7.35;;;;;;;;;;5005123;28;20074;-79
2022/06/22 10:01:25;;;;;;;12.00;9.32;;;;;;;;;;5021476;28;20042;-78
2022/06/22 10:03:54;;;;;;;13.57;9.55;;;;;;;;;;5022033;28;20030;-78
2022/06/22 10:06:20;;;;;;;12.40;8.80;;;;;;;;;;5022006;28;20062;-78
2022/06/22 10:09:09;;;;;;;11.63;7.78;;;;;;;;;;5021357;28;20031;-78
2022/06/22 10:11:48;;;;;;;12.23;9.50;;;;;;;;;;5021351;28;20042;-79
2022/06/22 10:14:33;;;;;;;15.35;10.27;;;;;;;;;;5057199;23;20109;-78
2022/06/22 10:17:17;;;;;;;13.10;9.73;;;;;;;;;;5062693;28;20045;-79
2022/06/22 10:20:02;;;;;;;13.75;9.70;;;;;;;;;;5062071;28;20018;-79
2022/06/22 10:22:28;;;;;;;13.13;9.90;;;;;;;;;;5045597;28;20028;-78
2022/06/22 10:25:23;;;;;;;13.23;8.57;;;;;;;;;;5062585;28;20014;-79
2022/06/22 10:28:00;;;;;;;13.35;8.57;;;;;;;;;;5061858;28;20029;-79
2022/06/22 10:30:26;;;;;;;12.63;8.60;;;;;;;;;;5061456;28;20052;-79
2022/06/22 10:33:05;;;;;;;12.07;8.15;;;;;;;;;;5062345;28;20022;-78
2022/06/22 10:35:31;;;;;;;13.50;8.52;;;;;;;;;;5062306;28;20017;-79
2022/06/22 10:37:57;;;;;;;10.82;8.15;;;;;;;;;;5045317;28;20016;-79
2022/06/22 10:46:06;;;;;;;11.07;7.47;;;;;;;;;;5042224;28;20014;-78
2022/06/22 10:48:38;;;;;;;11.10;7.13;;;;;;;;;;5041410;28;20026;-79
2022/06/22 10:51:15;;;;;;;9.17;7.03;;;;;;;;;;5042121;28;20014;-79
2022/06/22 10:53:41;;;;;;;11.93;7.25;;;;;;;;;;5042296;28;20014;-79
2022/06/22 10:56:07;;;;;;;9.90;7.35;;;;;;;;;;5041645;28;20010;-79
2022/06/22 10:58:39;;;;;;;9.23;7.10;;;;;;;;;;5041356;28;20085;-79
2022/06/22 11:01:24;;;;;;;11.98;6.97;;;;;;;;;;5025212;28;20035;-79
2022/06/22 11:03:53;;;;;;;9.80;7.80;;;;;;;;;;5025225;28;20055;-78
2022/06/22 11:06:37;;;;;;;13.15;9.15;;;;;;;;;;5041604;28;20026;-79
2022/06/22 11:09:20;;;;;;;14.20;9.50;;;;;;;;;;5041050;28;20013;-79
2022/06/22 11:12:05;;;;;;;11.65;9.35;;;;;;;;;;5039172;28;20072;-80
2022/06/22 11:14:43;;;;;;;12.65;9.10;;;;;;;;;;5008523;28;20033;-80
2022/06/22 11:17:09;;;;;;;13.48;9.40;;;;;;;;;;5041680;28;20026;-79
2022/06/22 11:19:38;;;;;;;14.73;10.25;;;;;;;;;;5041245;28;20030;-79
2022/06/22 11:22:17;;;;;;;14.82;9.48;;;;;;;;;;5040903;28;20012;-79
2022/06/22 11:24:52;;;;;;;15.10;9.80;;;;;;;;;;5041095;28;20033;-79
2022/06/22 11:33:13;;;;;;;12.57;9.70;;;;;;;;;;5040819;28;20030;-79
2022/06/22 11:35:39;;;;;;;13.65;9.07;;;;;;;;;;5024494;28;20022;-78
2022/06/22 11:38:08;;;;;;;12.45;8.38;;;;;;;;;;5041322;28;20014;-78
2022/06/22 11:40:57;;;;;;;14.93;9.45;;;;;;;;;;5040620;28;20040;-79
2022/06/22 11:43:45;;;;;;;13.13;8.48;;;;;;;;;;5020543;28;20019;-81
2022/06/22 11:46:31;;;;;;;13.70;9.63;;;;;;;;;;5004785;28;20045;-80
2022/06/22 11:49:16;;;;;;;13.82;9.18;;;;;;;;;;5004879;28;20094;-81
2022/06/22 11:51:45;;;;;;;11.77;8.57;;;;;;;;;;5021306;28;20030;-80
2022/06/22 11:54:30;;;;;;;11.40;8.65;;;;;;;;;;5004652;28;20018;-80
2022/06/22 11:56:56;;;;;;;12.70;8.70;;;;;;;;;;5016397;28;20086;-81
2022/06/22 11:59:22;;;;;;;13.07;8.00;;;;;;;;;;5040487;28;20026;-81
2022/06/22 12:01:54;;;;;;;13.70;9.38;;;;;;;;;;5040081;28;20022;-79
2022/06/22 12:04:21;;;;;;;12.68;7.90;;;;;;;;;;5040928;28;20051;-80
2022/06/22 12:06:50;;;;;;;10.30;7.90;;;;;;;;;;5023953;28;20025;-81
2022/06/22 12:09:35;;;;;;;10.40;7.50;;;;;;;;;;5040696;28;20021;-80
2022/06/22 12:12:11;;;;;;;10.33;7.17;;;;;;;;;;5022782;28;20038;-80
2022/06/22 12:15:04;;;;;;;10.05;7.32;;;;;;;;;;5039839;28;20041;-81
2022/06/22 12:17:43;;;;;;;11.52;7.72;;;;;;;;;;5039870;28;20030;-79
2022/06/22 12:20:28;;;;;;;12.38;7.78;;;;;;;;;;5039918;28;20009;-79
2022/06/22 12:22:57;;;;;;;10.25;7.05;;;;;;;;;;5040597;28;20014;-78
2022/06/22 12:25:29;;;;;;;11.43;7.32;;;;;;;;;;5039822;28;20029;-79
2022/06/22 12:28:33;;;;;;;9.23;6.85;;;;;;;;;;5040500;28;20030;-79
2022/06/22 12:31:05;;;;;;;9.80;6.25;;;;;;;;;;4980611;28;20039;-78
2022/06/22 12:33:36;;;;;;;10.93;6.70;;;;;;;;;;4980771;29;20094;-79
2022/06/22 12:36:16;;;;;;;12.20;7.35;;;;;;;;;;4964832;29;20031;-79
2022/06/22 12:38:48;;;;;;;9.88;6.50;;;;;;;;;;4980797;29;20020;-78
2022/06/22 12:41:17;;;;;;;8.77;6.13;;;;;;;;;;4963469;29;20020;-79
2022/06/22 12:43:43;;;;;;;11.68;7.75;;;;;;;;;;4980705;29;20012;-79
2022/06/22 12:46:12;;;;;;;14.85;6.88;;;;;;;;;;4980557;29;20019;-79
2022/06/22 12:48:41;;;;;;;11.55;7.05;;;;;;;;;;4980658;29;20035;-78
2022/06/22 12:51:28;;;;;;;10.18;6.47;;;;;;;;;;4980214;28;20086;-79
2022/06/22 12:54:13;;;;;;;11.77;6.32;;;;;;;;;;4980592;29;20054;-79
2022/06/22 12:56:39;;;;;;;10.57;6.55;;;;;;;;;;4980074;29;20016;-78
2022/06/22 12:59:28;;;;;;;12.05;6.22;;;;;;;;;;4964484;29;20062;-78
2022/06/22 13:01:54;;;;;;;9.00;5.93;;;;;;;;;;4990477;28;20086;-78
2022/06/22 13:04:31;;;;;;;8.40;5.43;;;;;;;;;;5039877;28;20020;-78
2022/06/22 13:06:59;;;;;;;9.00;5.40;;;;;;;;;;5039748;28;20021;-79
2022/06/22 13:09:25;;;;;;;9.40;5.50;;;;;;;;;;5039143;28;20010;-78
2022/06/22 13:11:52;;;;;;;10.40;5.30;;;;;;;;;;5038951;28;20045;-79
2022/06/22 13:14:28;;;;;;;7.00;4.57;;;;;;;;;;5038258;28;20030;-79
2022/06/22 13:16:57;;;;;;;10.40;5.03;;;;;;;;;;5039701;28;20022;-79
2022/06/22 13:19:26;;;;;;;10.43;4.88;;;;;;;;;;5039736;28;20026;-79
2022/06/22 13:22:11;;;;;;;8.52;5.28;;;;;;;;;;5039705;28;20021;-79
2022/06/22 13:24:46;;;;;;;7.47;4.70;;;;;;;;;;5038099;28;20022;-79
2022/06/22 13:27:21;;;;;;;8.80;5.18;;;;;;;;;;5039085;28;20045;-79
2022/06/22 13:29:53;;;;;;;7.90;4.78;;;;;;;;;;5043232;28;20085;-79
2022/06/22 13:32:20;;;;;;;9.25;5.13;;;;;;;;;;5043563;28;20037;-78
2022/06/22 13:34:50;;;;;;;12.88;5.53;;;;;;;;;;5043009;28;20044;-79
2022/06/22 13:37:16;;;;;;;8.82;5.30;;;;;;;;;;5043558;28;20021;-79
2022/06/22 13:40:03;;;;;;;8.48;5.22;;;;;;;;;;5043245;28;20053;-78
2022/06/22 13:42:38;;;;;;;7.60;4.88;;;;;;;;;;5041997;28;20026;-78
2022/06/22 13:45:13;;;;;;;9.52;5.13;;;;;;;;;;5040404;28;20034;-78
2022/06/22 13:47:58;;;;;;;8.32;3.83;;;;;;;;;;5041518;28;20112;-78
2022/06/22 13:50:39;;;;;;;10.32;4.60;;;;;;;;;;5042031;28;20058;-78
2022/06/22 13:53:26;;;;;;;8.38;4.38;;;;;;;;;;5041878;28;20038;-78
2022/06/22 13:55:55;;;;;;;8.57;4.20;;;;;;;;;;5040825;28;20041;-78
2022/06/22 13:58:27;;;;;;;8.90;4.70;;;;;;;;;;5041189;28;20049;-78
2022/06/22 14:00:53;;;;;;;7.65;3.78;;;;;;;;;;5040793;28;20017;-78
2022/06/22 14:03:41;;;;;;;7.22;4.15;;;;;;;;;;5041774;28;20044;-78
2022/06/22 14:06:12;;;;;;;8.02;4.13;;;;;;;;;;5041340;28;20033;-78
2022/06/22 14:08:44;;;;;;;8.45;4.28;;;;;;;;;;5041655;28;20061;-78
2022/06/22 14:11:35;;;;;;;6.88;4.90;;;;;;;;;;5041440;28;20057;-79
2022/06/22 14:14:12;;;;;;;5.93;3.90;;;;;;;;;;5040191;28;20034;-78
2022/06/22 14:16:41;;;;;;;8.77;4.90;;;;;;;;;;5024578;28;20080;-78
2022/06/22 14:19:33;;;;;;;7.55;4.20;;;;;;;;;;5041042;28;20065;-78
2022/06/22 14:22:04;;;;;;;7.20;3.90;;;;;;;;;;5018828;28;20117;-78
2022/06/22 14:24:38;;;;;;;9.20;4.30;;;;;;;;;;5039792;28;20037;-78
2022/06/22 14:27:04;;;;;;;9.25;3.90;;;;;;;;;;5040844;28;20050;-78
2022/06/22 14:29:30;;;;;;;6.57;4.03;;;;;;;;;;5040387;28;20018;-78
2022/06/22 14:32:15;;;;;;;8.05;4.53;;;;;;;;;;5040520;28;20034;-78
2022/06/22 14:34:58;;;;;;;6.28;3.80;;;;;;;;;;5040464;28;20098;-79
2022/06/22 14:37:31;;;;;;;8.35;4.47;;;;;;;;;;5036979;28;20034;-75
2022/06/22 14:40:07;;;;;;;7.78;4.40;;;;;;;;;;5038908;28;20097;-77
2022/06/22 14:42:38;;;;;;;6.28;4.32;;;;;;;;;;5035550;28;20056;-78
2022/06/22 14:45:24;;;;;;;6.22;4.32;;;;;;;;;;5037107;28;20109;-74
2022/06/22 14:47:56;;;;;;;10.07;4.25;;;;;;;;;;5040889;28;20030;-75
2022/06/22 14:50:32;;;;;;;8.73;4.50;;;;;;;;;;5037094;28;20061;-74
2022/06/22 14:53:14;;;;;;;6.43;4.20;;;;;;;;;;5036721;28;20082;-74
2022/06/22 14:55:45;;;;;;;6.40;4.50;;;;;;;;;;5039183;28;20097;-77
2022/06/22 14:58:14;;;;;;;7.47;4.28;;;;;;;;;;5040110;28;20049;-78
2022/06/22 15:00:59;;;;;;;7.47;3.90;;;;;;;;;;5039616;28;20048;-77
2022/06/22 15:03:43;;;;;;;7.93;4.80;;;;;;;;;;5037551;28;20026;-78
2022/06/22 15:06:15;;;;;;;7.57;4.43;;;;;;;;;;5032808;28;20093;-78
2022/06/22 15:09:11;;;;;;;7.10;4.40;;;;;;;;;;5035422;28;20053;-77
2022/06/22 15:14:43;;;;;;;7.03;4.47;;;;;;;;;;5029985;28;20034;-77
2022/06/22 15:17:18;;;;;;;8.73;5.03;;;;;;;;;;5037268;28;20037;-76
2022/06/22 15:20:04;;;;;;;5.72;4.25;;;;;;;;;;5035305;28;20046;-77
2022/06/22 15:22:39;;;;;;;9.38;5.00;;;;;;;;;;5034726;28;20026;-78
2022/06/22 15:25:21;;;;;;;8.20;4.57;;;;;;;;;;5040183;28;20049;-78
2022/06/22 15:28:06;;;;;;;7.95;4.70;;;;;;;;;;5035889;28;20085;-78
2022/06/22 15:30:36;;;;;;;9.82;4.50;;;;;;;;;;5027161;28;20029;-76
2022/06/22 15:33:09;;;;;;;6.38;4.60;;;;;;;;;;5017982;28;20037;-77
2022/06/22 15:35:50;;;;;;;7.88;4.68;;;;;;;;;;5029763;28;20053;-78
2022/06/22 15:38:35;;;;;;;6.47;4.45;;;;;;;;;;5030948;28;20022;-78
2022/06/22 15:41:01;;;;;;;6.80;4.70;;;;;;;;;;5034556;28;20030;-76